Helsinki Vantaa Airport


Codes: EFHK/HEL
Name: Helsinki Vantaa Airport
City: Helsinki
Country: Finland
Elevation: 179 ft.
Wikipedia:

Photos at Helsinki Vantaa Airport


   Photos courtesy of SpottingLog. You can add your own sightings and photos by signing up for a free trial today.



OH-ATP, 07-Feb-2024
© Simon Fewkes-Ahearne

ES-LSC, 07-Feb-2024
© Simon Fewkes-Ahearne

OH-LKG, 07-Feb-2024
© Simon Fewkes-Ahearne

OH-LZE, 07-Feb-2024
© Simon Fewkes-Ahearne

SE-RTK, 07-Feb-2024
© Simon Fewkes-Ahearne

SE-RTM, 07-Feb-2024
© Simon Fewkes-Ahearne

SE-MKB, 07-Feb-2024
© Simon Fewkes-Ahearne

OH-LXC, 07-Feb-2024
© Simon Fewkes-Ahearne

OH-LZR, 07-Feb-2024
© Simon Fewkes-Ahearne

OH-ATI, 07-Feb-2024
© Simon Fewkes-Ahearne

OH-ATE, 07-Feb-2024
© Simon Fewkes-Ahearne

OH-LWR, 07-Feb-2024
© Simon Fewkes-Ahearne


Weather at Helsinki Vantaa Airport


Time (UTC)DescriptionTempratureWindCloud coverageVisibilityPressureHumidity
15-Apr-2024 18:00Scattered Clouds7°C7 mph, NW33%10000m996hPa76%
15-Apr-2024 21:00Broken Clouds6°C4 mph, NW67%10000m997hPa82%
16-Apr-2024 00:00Overcast Clouds3°C4 mph, NW100%10000m997hPa94%
16-Apr-2024 03:00Overcast Clouds3°C4 mph, NW100%10000m997hPa92%
16-Apr-2024 06:00Overcast Clouds4°C2 mph, N100%10000m997hPa85%
16-Apr-2024 09:00Light Rain4°C2 mph, NE100%10000m998hPa85%
16-Apr-2024 12:00Light Rain5°C2 mph, N100%10000m998hPa82%
16-Apr-2024 15:00Overcast Clouds5°C4 mph, NE100%10000m998hPa81%
16-Apr-2024 18:00Overcast Clouds4°C2 mph, N100%10000m998hPa88%
16-Apr-2024 21:00Overcast Clouds3°C4 mph, N100%10000m998hPa91%
17-Apr-2024 00:00Overcast Clouds3°C4 mph, N100%10000m998hPa92%
17-Apr-2024 03:00Overcast Clouds2°C4 mph, N100%397m998hPa96%
17-Apr-2024 06:00Overcast Clouds2°C7 mph, N100%10000m1000hPa78%
17-Apr-2024 09:00Overcast Clouds2°C7 mph, N100%10000m1001hPa65%
17-Apr-2024 12:00Overcast Clouds3°C4 mph, N100%10000m1003hPa63%
17-Apr-2024 15:00Light Snow2°C4 mph, N100%6245m1004hPa75%
17-Apr-2024 18:00Light Snow-0°C7 mph, N100%10000m1007hPa69%
17-Apr-2024 21:00Broken Clouds-3°C4 mph, N66%10000m1009hPa79%
18-Apr-2024 00:00Broken Clouds-3°C4 mph, N51%10000m1010hPa82%
18-Apr-2024 03:00Few Clouds-3°C4 mph, N20%10000m1011hPa77%
18-Apr-2024 06:00Scattered Clouds-1°C7 mph, N38%10000m1013hPa54%
18-Apr-2024 09:00Overcast Clouds1°C4 mph, N96%10000m1013hPa41%
18-Apr-2024 12:00Overcast Clouds2°C4 mph, N98%10000m1014hPa42%
18-Apr-2024 15:00Overcast Clouds2°C2 mph, E100%10000m1014hPa48%
18-Apr-2024 18:00Overcast Clouds-2°C2 mph, NE100%10000m1015hPa66%
18-Apr-2024 21:00Broken Clouds-3°C7 mph, NE83%10000m1014hPa67%
19-Apr-2024 00:00Overcast Clouds-3°C4 mph, NE87%10000m1013hPa65%
19-Apr-2024 03:00Broken Clouds-4°C7 mph, N83%10000m1011hPa65%
19-Apr-2024 06:00Broken Clouds-2°C9 mph, NE84%10000m1009hPa60%
19-Apr-2024 09:00Overcast Clouds1°C9 mph, NE100%10000m1007hPa49%
19-Apr-2024 12:00Overcast Clouds2°C11 mph, N100%10000m1004hPa46%
19-Apr-2024 15:00Overcast Clouds0°C9 mph, N100%10000m1003hPa51%
19-Apr-2024 18:00Overcast Clouds-2°C9 mph, N100%10000m1002hPa70%
19-Apr-2024 21:00Light Snow-3°C9 mph, NW100%1077m1000hPa86%
20-Apr-2024 00:00Light Snow-3°C9 mph, NW100%507m1000hPa88%
20-Apr-2024 03:00Light Snow-4°C9 mph, NW100%9623m1000hPa82%
20-Apr-2024 06:00Light Snow-2°C9 mph, NW100%10000m1002hPa71%
20-Apr-2024 09:00Overcast Clouds-1°C7 mph, NW100%10000m1003hPa64%
20-Apr-2024 12:00Overcast Clouds1°C7 mph, NW100%10000m1006hPa59%
20-Apr-2024 15:00Overcast Clouds1°C9 mph, NW100%10000m1008hPa65%